createdAt,value
2023-12-30T00:01:22.512Z,2.22
2023-12-30T00:03:49.808Z,2.29
2023-12-30T00:06:17.045Z,2.24
2023-12-30T00:08:44.340Z,2.19
2023-12-30T00:11:11.780Z,2.16
2023-12-30T00:13:39.334Z,2.21
2023-12-30T00:16:06.531Z,2.05
2023-12-30T00:18:33.856Z,2.03
2023-12-30T00:21:01.099Z,2.08
2023-12-30T00:23:32.072Z,1.90
2023-12-30T00:26:05.066Z,1.92
2023-12-30T00:28:32.179Z,1.87
2023-12-30T00:30:59.552Z,1.89
2023-12-30T00:33:28.800Z,1.87
2023-12-30T00:35:56.781Z,1.94
2023-12-30T00:38:24.719Z,1.94
2023-12-30T00:40:52.276Z,1.91
2023-12-30T00:43:19.327Z,1.84
2023-12-30T00:45:47.364Z,1.90
2023-12-30T00:48:15.325Z,1.89
2023-12-30T00:50:42.362Z,1.93
2023-12-30T00:53:09.490Z,1.87
2023-12-30T00:55:36.560Z,1.83
2023-12-30T00:58:03.907Z,1.88
2023-12-30T01:00:32.082Z,1.76
2023-12-30T01:02:59.396Z,1.82
2023-12-30T01:05:26.774Z,1.77
2023-12-30T01:07:53.965Z,1.85
2023-12-30T01:10:21.163Z,1.73
2023-12-30T01:12:48.355Z,1.69
2023-12-30T01:15:15.562Z,1.73
2023-12-30T01:17:43.163Z,1.64
2023-12-30T01:20:12.050Z,1.61
2023-12-30T01:22:39.472Z,1.63
2023-12-30T01:25:07.245Z,1.65
2023-12-30T01:27:34.569Z,1.59
2023-12-30T01:30:01.730Z,1.58
2023-12-30T01:32:30.672Z,1.59
2023-12-30T01:34:57.794Z,1.60
2023-12-30T01:37:24.887Z,1.52
2023-12-30T01:39:52.028Z,1.63
2023-12-30T01:42:19.393Z,1.59
2023-12-30T01:44:46.498Z,1.58
2023-12-30T01:47:14.640Z,1.55
2023-12-30T01:49:42.172Z,1.63
2023-12-30T01:52:09.830Z,1.62
2023-12-30T01:54:36.976Z,1.55
2023-12-30T01:57:04.895Z,1.51
2023-12-30T01:59:33.093Z,1.43
2023-12-30T02:02:00.846Z,1.45
2023-12-30T02:04:28.166Z,1.54
2023-12-30T02:06:55.375Z,1.50
2023-12-30T02:09:22.899Z,1.48
2023-12-30T02:11:50.167Z,1.53
2023-12-30T02:14:24.894Z,1.45
2023-12-30T02:16:52.111Z,1.47
2023-12-30T02:19:39.955Z,1.48
2023-12-30T02:22:07.076Z,1.45
2023-12-30T02:24:34.221Z,1.43
2023-12-30T02:27:01.409Z,1.29
2023-12-30T02:29:28.477Z,1.32
2023-12-30T02:31:55.626Z,1.33
2023-12-30T02:34:22.854Z,1.39
2023-12-30T02:36:50.166Z,1.39
2023-12-30T02:39:17.253Z,1.36
2023-12-30T02:41:44.286Z,1.29
2023-12-30T02:44:11.702Z,1.43
2023-12-30T02:46:38.993Z,1.30
2023-12-30T02:49:06.583Z,1.28
2023-12-30T02:51:33.852Z,1.32
2023-12-30T02:54:00.911Z,1.32
2023-12-30T02:56:28.594Z,1.13
2023-12-30T02:59:03.165Z,1.34
2023-12-30T03:01:32.334Z,1.43
2023-12-30T03:04:01.379Z,1.36
2023-12-30T03:06:28.780Z,1.17
2023-12-30T03:08:56.000Z,1.19
2023-12-30T03:11:24.209Z,1.26
2023-12-30T03:13:51.242Z,1.19
2023-12-30T03:16:19.663Z,1.21
2023-12-30T03:18:47.580Z,1.13
2023-12-30T03:21:17.939Z,0.59
2023-12-30T03:23:45.034Z,1.20
2023-12-30T03:26:12.110Z,1.12
2023-12-30T03:28:39.268Z,1.29
2023-12-30T03:31:08.544Z,1.19
2023-12-30T03:33:36.210Z,1.23
2023-12-30T03:36:03.325Z,1.21
2023-12-30T03:38:30.552Z,1.19
2023-12-30T03:40:58.347Z,1.22
2023-12-30T03:43:25.647Z,1.28
2023-12-30T03:45:52.779Z,1.11
2023-12-30T03:48:19.997Z,1.13
2023-12-30T03:50:47.209Z,1.14
2023-12-30T03:53:14.456Z,1.11
2023-12-30T03:55:41.684Z,1.05
2023-12-30T03:58:08.946Z,1.08
2023-12-30T04:00:36.106Z,1.12
2023-12-30T04:03:04.390Z,1.14
2023-12-30T04:05:31.725Z,1.16
2023-12-30T04:07:58.803Z,1.09
2023-12-30T04:10:25.903Z,1.17
2023-12-30T04:12:53.120Z,1.16
2023-12-30T04:15:21.263Z,1.12
2023-12-30T04:17:49.057Z,1.13
2023-12-30T04:20:16.324Z,1.13
2023-12-30T04:22:43.641Z,1.22
2023-12-30T04:25:10.830Z,1.26
2023-12-30T04:27:38.007Z,1.10
2023-12-30T04:30:05.514Z,1.01
2023-12-30T04:32:32.747Z,1.10
2023-12-30T04:34:59.967Z,1.06
2023-12-30T04:37:27.070Z,0.94
2023-12-30T04:39:54.341Z,1.01
2023-12-30T04:42:21.562Z,1.02
2023-12-30T04:44:48.986Z,1.00
2023-12-30T04:47:16.187Z,0.86
2023-12-30T04:49:43.425Z,0.91
2023-12-30T04:52:10.605Z,0.87
2023-12-30T04:54:38.874Z,0.90
2023-12-30T04:57:05.912Z,0.78
2023-12-30T04:59:33.279Z,0.87
2023-12-30T05:02:00.666Z,0.80
2023-12-30T05:04:28.022Z,0.89
2023-12-30T05:06:55.312Z,0.83
2023-12-30T05:09:22.359Z,0.84
2023-12-30T05:11:50.462Z,0.83
2023-12-30T05:14:19.819Z,0.89
2023-12-30T05:16:46.961Z,0.90
2023-12-30T05:19:14.862Z,0.90
2023-12-30T05:21:43.082Z,0.87
2023-12-30T05:24:10.296Z,0.84
2023-12-30T05:26:37.422Z,0.87
2023-12-30T05:29:04.414Z,0.86
2023-12-30T05:31:31.520Z,0.94
2023-12-30T05:33:58.717Z,0.93
2023-12-30T05:36:26.052Z,0.81
2023-12-30T05:38:53.131Z,0.84
2023-12-30T05:41:20.350Z,0.56
2023-12-30T05:43:47.386Z,0.23
2023-12-30T05:46:17.897Z,0.24
2023-12-30T05:48:45.463Z,-0.10
2023-12-30T05:51:13.197Z,-0.12
2023-12-30T05:53:43.670Z,0.03
2023-12-30T05:56:10.843Z,-0.04
2023-12-30T05:58:39.142Z,-0.13
2023-12-30T06:01:06.509Z,-0.17
2023-12-30T06:03:36.647Z,-0.15
2023-12-30T06:06:04.863Z,0.00
2023-12-30T06:08:34.052Z,0.18
2023-12-30T06:11:01.175Z,0.21
2023-12-30T06:13:28.274Z,0.19
2023-12-30T06:15:58.071Z,0.23
2023-12-30T06:18:31.940Z,0.33
2023-12-30T06:21:04.691Z,0.30
2023-12-30T06:23:33.311Z,0.24
2023-12-30T06:26:04.415Z,0.40
2023-12-30T06:28:31.567Z,0.11
2023-12-30T06:30:58.787Z,0.23
2023-12-30T06:33:26.123Z,0.19
2023-12-30T06:35:53.379Z,0.15
2023-12-30T06:38:20.512Z,0.42
2023-12-30T06:40:47.801Z,0.50
2023-12-30T06:43:15.524Z,0.57
2023-12-30T06:45:42.768Z,0.58
2023-12-30T06:48:10.446Z,0.74
2023-12-30T06:50:38.032Z,0.71
2023-12-30T06:53:05.333Z,0.66
2023-12-30T06:55:38.592Z,0.78
2023-12-30T06:58:09.912Z,0.79
2023-12-30T07:00:37.534Z,0.85
2023-12-30T07:03:05.595Z,0.89
2023-12-30T07:05:37.839Z,1.02
2023-12-30T07:08:06.000Z,1.14
2023-12-30T07:10:33.525Z,1.13
2023-12-30T07:13:00.948Z,1.17
2023-12-30T07:15:28.227Z,1.23
2023-12-30T07:17:55.914Z,1.25
2023-12-30T07:20:23.386Z,1.35
2023-12-30T07:22:50.532Z,1.42
2023-12-30T07:25:17.740Z,1.53
2023-12-30T07:27:45.312Z,1.58
2023-12-30T07:30:12.746Z,1.61
2023-12-30T07:32:40.279Z,1.46
2023-12-30T07:35:08.349Z,1.50
2023-12-30T07:37:36.338Z,1.74
2023-12-30T07:40:04.250Z,2.07
2023-12-30T07:42:31.510Z,2.06
2023-12-30T07:44:58.938Z,2.14
2023-12-30T07:47:29.582Z,2.24
2023-12-30T07:49:56.835Z,2.07
2023-12-30T07:52:24.272Z,2.07
2023-12-30T07:54:51.552Z,2.40
2023-12-30T07:57:18.747Z,2.51
2023-12-30T07:59:46.095Z,2.50
2023-12-30T08:02:13.534Z,2.63
2023-12-30T08:04:43.048Z,2.69
2023-12-30T08:07:10.857Z,2.59
2023-12-30T08:09:38.815Z,2.54
2023-12-30T08:12:06.845Z,2.42
2023-12-30T08:14:36.136Z,2.62
2023-12-30T08:17:04.286Z,2.42
2023-12-30T08:19:32.758Z,2.36
2023-12-30T08:22:00.851Z,2.55
2023-12-30T08:24:30.401Z,2.75
2023-12-30T08:26:59.513Z,2.98
2023-12-30T08:29:26.556Z,3.08
2023-12-30T08:31:54.451Z,3.38
2023-12-30T08:34:22.593Z,3.52
2023-12-30T08:36:50.117Z,3.64
2023-12-30T08:39:17.215Z,3.79
2023-12-30T08:41:44.591Z,3.89
2023-12-30T08:44:11.803Z,4.22
2023-12-30T08:46:38.973Z,4.27
2023-12-30T08:49:08.683Z,4.02
2023-12-30T08:51:39.286Z,3.85
2023-12-30T08:54:06.433Z,3.77
2023-12-30T08:56:38.287Z,3.77
2023-12-30T08:59:05.523Z,3.81
2023-12-30T09:01:32.698Z,3.82
2023-12-30T09:04:07.307Z,4.08
2023-12-30T09:06:34.553Z,4.16
2023-12-30T09:09:01.561Z,4.39
2023-12-30T09:11:28.864Z,4.41
2023-12-30T09:13:56.003Z,4.30
2023-12-30T09:16:23.072Z,4.42
2023-12-30T09:18:50.245Z,4.71
2023-12-30T09:21:17.539Z,4.72
2023-12-30T09:23:44.682Z,4.86
2023-12-30T09:26:13.977Z,4.94
2023-12-30T09:28:41.284Z,4.83
2023-12-30T09:31:08.801Z,4.98
2023-12-30T09:33:36.107Z,5.21
2023-12-30T09:36:03.680Z,5.24
2023-12-30T09:38:30.682Z,5.14
2023-12-30T09:40:57.872Z,5.28
2023-12-30T09:43:27.426Z,5.41
2023-12-30T09:45:57.684Z,5.50
2023-12-30T09:48:27.602Z,5.30
2023-12-30T09:50:55.687Z,5.36
2023-12-30T09:53:23.637Z,5.45
2023-12-30T09:55:54.629Z,5.68
2023-12-30T09:58:23.840Z,5.58
2023-12-30T10:00:51.454Z,5.67
2023-12-30T10:03:20.384Z,5.74
2023-12-30T10:05:48.605Z,5.53
2023-12-30T10:08:16.733Z,5.76
2023-12-30T10:10:47.433Z,5.66
2023-12-30T10:13:19.316Z,5.86
2023-12-30T10:15:46.975Z,5.80
2023-12-30T10:18:15.534Z,5.89
2023-12-30T10:20:45.731Z,5.91
2023-12-30T10:23:12.945Z,5.83
2023-12-30T10:25:41.017Z,5.84
2023-12-30T10:28:09.295Z,6.08
2023-12-30T10:30:36.922Z,6.19
2023-12-30T10:33:12.852Z,6.39
2023-12-30T10:35:41.706Z,6.34
2023-12-30T10:38:13.764Z,6.39
2023-12-30T10:40:42.195Z,6.51
2023-12-30T10:43:10.012Z,6.57
2023-12-30T10:45:38.603Z,6.78
2023-12-30T10:48:08.207Z,6.88
2023-12-30T10:50:40.416Z,6.98
2023-12-30T10:53:12.316Z,7.18
2023-12-30T10:55:49.897Z,7.26
2023-12-30T10:58:23.773Z,7.16
2023-12-30T11:01:00.367Z,7.31
2023-12-30T11:03:29.158Z,7.52
2023-12-30T11:06:16.388Z,7.64
2023-12-30T11:08:45.314Z,7.76
2023-12-30T11:11:15.696Z,7.79
2023-12-30T11:13:43.635Z,7.90
2023-12-30T11:16:15.804Z,7.89
2023-12-30T11:18:52.268Z,7.93
2023-12-30T11:21:35.240Z,8.09
2023-12-30T11:24:04.656Z,8.01
2023-12-30T11:26:32.783Z,8.22
2023-12-30T11:29:02.327Z,8.29
2023-12-30T11:31:33.041Z,8.21
2023-12-30T11:34:01.232Z,8.33
2023-12-30T11:36:29.828Z,8.38
2023-12-30T11:38:58.814Z,8.50
2023-12-30T11:41:27.560Z,8.35
2023-12-30T11:44:03.521Z,8.45
2023-12-30T11:46:31.189Z,8.69
2023-12-30T11:48:58.543Z,8.61
2023-12-30T11:51:27.945Z,8.80
2023-12-30T11:53:55.740Z,8.99
2023-12-30T11:56:23.903Z,9.03
2023-12-30T11:58:52.878Z,9.01
2023-12-30T12:01:21.370Z,9.02
2023-12-30T12:03:48.553Z,9.12
2023-12-30T12:06:16.458Z,9.16
2023-12-30T12:08:44.547Z,9.18
2023-12-30T12:11:12.191Z,9.42
2023-12-30T12:13:41.135Z,9.64
2023-12-30T12:16:18.385Z,9.83
2023-12-30T12:18:46.407Z,9.72
2023-12-30T12:21:15.174Z,9.87
2023-12-30T12:23:43.180Z,9.79
2023-12-30T12:26:10.734Z,9.86
2023-12-30T12:28:38.081Z,9.98
2023-12-30T12:31:08.485Z,9.96
2023-12-30T12:33:36.525Z,10.05
2023-12-30T12:36:06.061Z,10.08
2023-12-30T12:38:33.441Z,10.37
2023-12-30T12:41:00.512Z,10.39
2023-12-30T12:43:27.613Z,10.47
2023-12-30T12:45:54.887Z,10.48
2023-12-30T12:48:22.093Z,10.51
2023-12-30T12:50:49.734Z,10.57
2023-12-30T12:53:18.110Z,10.73
2023-12-30T12:55:45.388Z,10.67
2023-12-30T12:58:12.679Z,10.86
2023-12-30T13:00:39.869Z,10.92
2023-12-30T13:03:07.892Z,11.12
2023-12-30T13:05:36.205Z,11.26
2023-12-30T13:08:03.709Z,11.23
2023-12-30T13:10:34.093Z,11.39
2023-12-30T13:13:01.984Z,11.34
2023-12-30T13:15:29.532Z,11.18
2023-12-30T13:17:56.931Z,11.26
2023-12-30T13:20:25.396Z,11.27
2023-12-30T13:22:57.900Z,11.39
2023-12-30T13:25:31.705Z,11.43
2023-12-30T13:27:59.992Z,11.17
2023-12-30T13:30:27.559Z,11.25
2023-12-30T13:32:59.164Z,11.44
2023-12-30T13:35:30.605Z,11.28
2023-12-30T13:37:57.613Z,11.33
2023-12-30T13:40:26.314Z,11.32
2023-12-30T13:42:55.584Z,11.17
2023-12-30T13:45:23.536Z,11.22
2023-12-30T13:48:13.394Z,11.33
2023-12-30T13:51:01.247Z,11.29
2023-12-30T13:53:29.660Z,11.19
2023-12-30T13:56:00.616Z,11.29
2023-12-30T13:58:29.966Z,11.15
2023-12-30T14:00:57.786Z,11.19
2023-12-30T14:03:26.673Z,11.16
2023-12-30T14:05:54.333Z,11.11
2023-12-30T14:08:33.871Z,11.15
2023-12-30T14:11:07.954Z,11.13
2023-12-30T14:13:35.162Z,11.02
2023-12-30T14:16:02.430Z,11.13
2023-12-30T14:18:29.834Z,10.91
2023-12-30T14:20:56.936Z,11.02
2023-12-30T14:23:24.034Z,11.00
2023-12-30T14:25:51.349Z,10.95
2023-12-30T14:28:18.590Z,10.92
2023-12-30T14:30:46.355Z,10.93
2023-12-30T14:33:13.661Z,10.91
2023-12-30T14:35:40.898Z,10.81
2023-12-30T14:38:08.166Z,10.54
2023-12-30T14:40:35.753Z,10.51
2023-12-30T14:43:03.459Z,10.35
2023-12-30T14:45:30.865Z,10.18
2023-12-30T14:47:58.732Z,10.19
2023-12-30T14:50:25.893Z,10.25
2023-12-30T14:52:53.459Z,10.11
2023-12-30T14:55:20.606Z,10.13
2023-12-30T14:57:49.886Z,9.96
2023-12-30T15:00:17.902Z,9.86
2023-12-30T15:02:45.817Z,9.72
2023-12-30T15:05:15.700Z,9.78
2023-12-30T15:07:45.188Z,9.72
2023-12-30T15:10:15.052Z,9.50
2023-12-30T15:12:44.082Z,9.52
2023-12-30T15:15:13.096Z,9.44
2023-12-30T15:17:40.592Z,9.49
2023-12-30T15:20:09.214Z,9.54
2023-12-30T15:22:38.730Z,9.48
2023-12-30T15:25:09.160Z,9.26
2023-12-30T15:27:36.359Z,9.22
2023-12-30T15:30:03.782Z,9.12
2023-12-30T15:32:31.450Z,8.93
2023-12-30T15:34:59.532Z,8.94
2023-12-30T15:37:32.499Z,8.93
2023-12-30T15:39:59.725Z,8.84
2023-12-30T15:42:27.161Z,8.90
2023-12-30T15:44:54.198Z,8.76
2023-12-30T15:47:22.128Z,8.74
2023-12-30T15:49:49.304Z,8.73
2023-12-30T15:52:16.657Z,8.60
2023-12-30T15:54:44.364Z,8.54
2023-12-30T15:57:11.973Z,8.57
2023-12-30T15:59:39.179Z,8.46
2023-12-30T16:02:06.906Z,8.57
2023-12-30T16:04:34.455Z,8.52
2023-12-30T16:07:02.346Z,8.62
2023-12-30T16:09:29.677Z,8.69
2023-12-30T16:11:58.387Z,8.59
2023-12-30T16:14:25.631Z,8.45
2023-12-30T16:16:52.888Z,8.53
2023-12-30T16:19:21.252Z,8.53
2023-12-30T16:21:50.982Z,8.55
2023-12-30T16:24:18.730Z,8.63
2023-12-30T16:26:46.148Z,8.35
2023-12-30T16:29:13.433Z,8.43
2023-12-30T16:31:40.737Z,8.71
2023-12-30T16:34:08.228Z,8.59
2023-12-30T16:36:36.469Z,8.63
2023-12-30T16:39:03.824Z,8.64
2023-12-30T16:41:32.290Z,8.67
2023-12-30T16:43:59.437Z,8.61
2023-12-30T16:46:26.788Z,8.66
2023-12-30T16:48:54.831Z,8.60
2023-12-30T16:51:22.345Z,8.42
2023-12-30T16:53:49.788Z,8.66
2023-12-30T16:56:17.220Z,8.70
2023-12-30T16:58:44.547Z,8.59
2023-12-30T17:01:11.752Z,8.54
2023-12-30T17:03:38.932Z,8.49
2023-12-30T17:06:06.471Z,8.70
2023-12-30T17:08:33.988Z,8.37
2023-12-30T17:11:01.085Z,8.49
2023-12-30T17:13:35.138Z,8.60
2023-12-30T17:16:07.782Z,8.50
2023-12-30T17:18:35.160Z,8.49
2023-12-30T17:21:02.929Z,8.44
2023-12-30T17:23:30.059Z,8.58
2023-12-30T17:25:57.282Z,8.41
2023-12-30T17:28:24.510Z,8.46
2023-12-30T17:30:51.711Z,8.62
2023-12-30T17:33:18.993Z,8.42
2023-12-30T17:35:46.158Z,8.50
2023-12-30T17:38:13.324Z,8.50
2023-12-30T17:40:40.621Z,8.44
2023-12-30T17:43:08.581Z,8.59
2023-12-30T17:45:35.708Z,8.43
2023-12-30T17:48:03.112Z,8.46
2023-12-30T17:50:30.864Z,8.44
2023-12-30T17:52:58.196Z,8.50
2023-12-30T17:55:26.521Z,8.32
2023-12-30T17:57:53.672Z,8.28
2023-12-30T18:00:21.351Z,8.35
2023-12-30T18:02:49.296Z,8.33
2023-12-30T18:05:16.701Z,8.02
2023-12-30T18:07:44.136Z,7.78
2023-12-30T18:10:11.557Z,7.75
2023-12-30T18:12:38.801Z,7.76
2023-12-30T18:15:06.614Z,7.82
2023-12-30T18:17:33.871Z,7.82
2023-12-30T18:20:01.452Z,7.82
2023-12-30T18:22:30.148Z,7.80
2023-12-30T18:24:58.269Z,7.77
2023-12-30T18:27:25.455Z,7.75
2023-12-30T18:29:52.578Z,7.74
2023-12-30T18:32:19.626Z,7.59
2023-12-30T18:34:46.726Z,7.64
2023-12-30T18:37:15.557Z,7.66
2023-12-30T18:39:42.906Z,7.72
2023-12-30T18:42:10.049Z,7.45
2023-12-30T18:44:37.401Z,7.58
2023-12-30T18:47:04.791Z,7.41
2023-12-30T18:49:31.967Z,7.21
2023-12-30T18:51:59.510Z,6.73
2023-12-30T18:54:26.783Z,6.78
2023-12-30T18:56:53.934Z,6.65
2023-12-30T18:59:21.114Z,6.70
2023-12-30T19:01:48.253Z,6.72
2023-12-30T19:04:15.632Z,6.59
2023-12-30T19:06:42.961Z,6.35
2023-12-30T19:09:10.474Z,6.15
2023-12-30T19:11:38.576Z,6.29
2023-12-30T19:14:05.685Z,6.43
2023-12-30T19:16:32.901Z,6.16
2023-12-30T19:19:00.254Z,6.30
2023-12-30T19:21:27.389Z,6.26
2023-12-30T19:23:54.645Z,5.92
2023-12-30T19:26:21.893Z,5.71
2023-12-30T19:28:49.296Z,5.84
2023-12-30T19:31:16.726Z,5.86
2023-12-30T19:33:44.274Z,5.89
2023-12-30T19:36:11.885Z,5.79
2023-12-30T19:38:39.430Z,5.80
2023-12-30T19:41:06.563Z,5.79
2023-12-30T19:43:35.374Z,5.86
2023-12-30T19:46:08.760Z,5.78
2023-12-30T19:48:36.527Z,5.80
2023-12-30T19:51:05.585Z,5.68
2023-12-30T19:53:34.007Z,5.69
2023-12-30T19:56:02.776Z,5.55
2023-12-30T19:58:32.072Z,5.53
2023-12-30T20:00:59.701Z,5.51
2023-12-30T20:03:27.063Z,5.51
2023-12-30T20:05:54.484Z,5.50
2023-12-30T20:08:22.551Z,5.48
2023-12-30T20:10:50.111Z,5.46
2023-12-30T20:13:17.320Z,5.49
2023-12-30T20:15:44.542Z,5.56
2023-12-30T20:18:11.842Z,5.47
2023-12-30T20:20:39.110Z,5.46
2023-12-30T20:23:06.841Z,5.38
2023-12-30T20:25:34.232Z,5.39
2023-12-30T20:28:01.637Z,5.48
2023-12-30T20:30:28.957Z,5.38
2023-12-30T20:32:56.373Z,5.31
2023-12-30T20:35:23.492Z,5.31
2023-12-30T20:37:50.659Z,5.35
2023-12-30T20:40:18.886Z,5.33
2023-12-30T20:42:46.471Z,5.30
2023-12-30T20:45:18.046Z,5.27
2023-12-30T20:47:45.180Z,5.26
2023-12-30T20:50:13.041Z,5.22
2023-12-30T20:52:40.765Z,5.23
2023-12-30T20:55:08.054Z,4.99
2023-12-30T20:57:35.264Z,4.88
2023-12-30T21:00:02.467Z,4.83
2023-12-30T21:02:31.250Z,4.89
2023-12-30T21:04:58.753Z,4.90
2023-12-30T21:07:25.864Z,4.96
2023-12-30T21:09:53.055Z,5.02
2023-12-30T21:12:20.162Z,4.95
2023-12-30T21:14:47.321Z,4.93
2023-12-30T21:17:15.028Z,4.93
2023-12-30T21:19:42.231Z,5.00
2023-12-30T21:22:09.657Z,4.96
2023-12-30T21:24:39.902Z,4.85
2023-12-30T21:27:07.475Z,4.92
2023-12-30T21:29:38.237Z,4.95
2023-12-30T21:32:07.519Z,4.93
2023-12-30T21:34:34.637Z,4.95
2023-12-30T21:37:01.703Z,4.96
2023-12-30T21:39:28.751Z,4.94
2023-12-30T21:41:55.909Z,4.97
2023-12-30T21:44:22.958Z,5.07
2023-12-30T21:46:50.167Z,5.07
2023-12-30T21:49:17.475Z,5.00
2023-12-30T21:51:45.576Z,4.98
2023-12-30T21:54:14.411Z,4.98
2023-12-30T21:56:42.451Z,5.10
2023-12-30T21:59:09.972Z,4.79
2023-12-30T22:01:37.460Z,4.76
2023-12-30T22:04:06.052Z,4.81
2023-12-30T22:06:34.153Z,4.75
2023-12-30T22:09:01.374Z,4.68
2023-12-30T22:11:28.913Z,4.65
2023-12-30T22:13:56.852Z,4.64
2023-12-30T22:16:24.264Z,4.63
2023-12-30T22:18:51.536Z,4.59
2023-12-30T22:21:19.254Z,4.56
2023-12-30T22:23:48.028Z,4.55
2023-12-30T22:26:19.122Z,4.42
2023-12-30T22:28:46.498Z,4.45
2023-12-30T22:31:14.113Z,4.46
2023-12-30T22:33:41.253Z,4.50
2023-12-30T22:36:08.571Z,4.55
2023-12-30T22:38:39.200Z,4.42
2023-12-30T22:41:06.489Z,4.39
2023-12-30T22:43:34.598Z,4.43
2023-12-30T22:46:02.812Z,4.49
2023-12-30T22:48:29.972Z,4.53
2023-12-30T22:50:57.207Z,4.46
2023-12-30T22:53:24.259Z,4.42
2023-12-30T22:55:51.489Z,4.42
2023-12-30T22:58:18.594Z,4.42
2023-12-30T23:00:46.775Z,4.44
2023-12-30T23:03:15.275Z,4.40
2023-12-30T23:05:42.409Z,4.53
2023-12-30T23:08:09.635Z,4.46
2023-12-30T23:10:36.884Z,4.51
2023-12-30T23:13:05.404Z,4.21
2023-12-30T23:15:32.780Z,4.23
2023-12-30T23:18:00.392Z,4.20
2023-12-30T23:20:27.740Z,4.42
2023-12-30T23:22:54.881Z,4.44
2023-12-30T23:25:21.982Z,4.35
2023-12-30T23:27:49.160Z,4.42
2023-12-30T23:30:16.631Z,4.41
2023-12-30T23:32:43.784Z,4.43
2023-12-30T23:35:11.079Z,4.28
2023-12-30T23:37:38.246Z,4.49
2023-12-30T23:40:08.132Z,4.52
2023-12-30T23:42:35.161Z,4.51
2023-12-30T23:45:03.107Z,4.61
2023-12-30T23:47:30.535Z,4.58
2023-12-30T23:49:57.985Z,4.61
2023-12-30T23:52:25.378Z,4.65
2023-12-30T23:54:53.734Z,4.77
2023-12-30T23:57:21.022Z,4.77
2023-12-30T23:59:48.072Z,4.70
